Portada
METAR-TAF:

METAR-TAF

Aeroports :

Aeroport de Lampedusa

Lampedusa, Itàlia

latitud: 35-30N, longitud: 012-36E, altitud: 16 m

Observació

L'informe es va fer fa 20 minuts, a les 04:00 UTC
Vent 6 kt del Nord-Oest
Temperatura 26°C
Humitat 79%
Pressió 1015 hPa
Visibilitat 10 km o més
Escasses núvols a una alçada de 2000 ft

METAR: LICD 180400Z 32006KT 9999 FEW020 26/22 Q1015

Hora: 06:20 (04:20 UTC)

Pronòstic

L'informe es va fer fa 11 hores i 20 minuts, a les 17:00 UTC
Pronòstic vàlid del 17 a les 18 UTC al 18 a les 18 UTC
Vent 10 kt del Nord
Visibilitat 10 km o més
Núvols disperses a una alçada de 2000 ft

TAF: LICD 171700Z 1718/1818 36010KT 9999 SCT020

Observacions i pronòstics meteorològics de més de 4000 aeroports (METAR i TAF).

Les estacions disponibles són els punts grocs i vermells al mapa.

Posi el ratolí al punt desitjat per veure el nom de l'estació.

Feu clic per veure les observacions i els pronòstics meteorològics.

Per canviar el mapa: feu clic els botons verds amb una creu de color negre per apropar; al botó verd amb un guió per allunyar la imatge; o en les fletxes verdes per a mapes adjacents.


METAR-TAF: